Portada
METAR-TAF:

METAR-TAF

Aeropuertos :

Aeropuerto Internacional de Ciudad Obregón

Ciudad Obregón, México

latitud: 27-24N, longitud: 109-50W, altitud: 62 m

Observación

El informe se hizo hace 11 horas y 15 minutos, a las 00:41 UTC
Viento 6 kt del sur-suroeste
Temperatura 31°C
Humedad 46%
Presión 1008 hPa
Visibilidad: 16.1 km
Cielo despejado

METAR: MMCN 020041Z 20006KT 10SM SKC 31/18 A2977 RMK HZY DSNT CB E

Hora: 04:56 (11:56 UTC)

Pronóstico

El informe se hizo hace 7 horas y 6 minutos, a las 04:50 UTC
Pronóstico válido del 02 a las 06 UTC al 03 a las 06 UTC
Viento 5 kt del sur-suroeste
Visibilidad: 10 km
Cielo despejado
A partir de las 02 a las 1800 UTC
Viento 10 kt del suroeste
Visibilidad: 10 km
Nubes dispersas a una altura de 3000 ft
A partir de las 03 a las 0200 UTC
Viento 5 kt del sur-suroeste
Visibilidad: 10 km
Cielo despejado

TAF: MMCN 020450Z 0206/0306 20005KT P6SM SKC FM021800 22010KT P6SM SCT030 FM030200 20005KT P6SM SKC

Observaciones y pronósticos meteorológicos de más de 4000 aeropuertos (mensajes METAR y TAF).

Los puntos amarillos y rojos representan las estaciones disponibles.

Ponga el ratón en el punto deseado para ver el nombre de la estación.

Haga clic para ver las observaciones y los pronósticos meteorológicos.

Para cambiar el mapa : haga clic en los botones verdes con una cruz de color negro para hacer un zoom, en el botón verde con un guión para alejar o en las flechas verdes para mapas adyacentes.


METAR-TAF: